createdAt,value
2022-11-05T00:00:15.640Z,5.40
2022-11-05T00:03:01.180Z,5.40
2022-11-05T00:05:47.082Z,5.40
2022-11-05T00:08:34.345Z,5.40
2022-11-05T00:11:02.684Z,5.30
2022-11-05T00:13:48.062Z,5.30
2022-11-05T00:16:36.127Z,5.30
2022-11-05T00:19:10.473Z,5.20
2022-11-05T00:21:58.172Z,5.10
2022-11-05T00:24:44.929Z,5.10
2022-11-05T00:27:13.081Z,5.10
2022-11-05T00:29:41.375Z,5.00
2022-11-05T00:32:09.484Z,5.00
2022-11-05T00:34:37.695Z,5.00
2022-11-05T00:37:05.773Z,5.00
2022-11-05T00:39:35.480Z,4.90
2022-11-05T00:42:21.214Z,4.90
2022-11-05T00:45:04.417Z,4.80
2022-11-05T00:47:51.534Z,4.80
2022-11-05T00:50:20.541Z,4.70
2022-11-05T00:52:58.190Z,4.70
2022-11-05T00:55:30.875Z,4.60
2022-11-05T00:57:59.455Z,4.60
2022-11-05T01:00:29.767Z,4.60
2022-11-05T01:03:02.184Z,4.60
2022-11-05T01:05:31.547Z,4.50
2022-11-05T01:07:59.768Z,4.50
2022-11-05T01:10:29.782Z,4.50
2022-11-05T01:12:58.770Z,4.50
2022-11-05T01:15:26.927Z,4.50
2022-11-05T01:17:55.033Z,4.50
2022-11-05T01:20:23.321Z,4.50
2022-11-05T01:22:51.441Z,4.50
2022-11-05T01:25:19.927Z,4.40
2022-11-05T01:27:49.359Z,4.40
2022-11-05T01:30:17.989Z,4.40
2022-11-05T01:32:46.204Z,4.30
2022-11-05T01:35:16.340Z,4.30
2022-11-05T01:37:44.792Z,4.20
2022-11-05T01:40:14.415Z,4.20
2022-11-05T01:42:43.234Z,4.10
2022-11-05T01:45:18.113Z,4.10
2022-11-05T01:47:57.954Z,4.10
2022-11-05T01:50:40.747Z,4.10
2022-11-05T01:53:20.927Z,4.10
2022-11-05T01:55:54.404Z,4.10
2022-11-05T01:58:27.463Z,4.00
2022-11-05T02:00:58.366Z,3.90
2022-11-05T02:03:27.281Z,3.80
2022-11-05T02:05:58.449Z,3.80
2022-11-05T02:08:37.746Z,3.80
2022-11-05T02:11:06.603Z,3.80
2022-11-05T02:13:34.696Z,3.70
2022-11-05T02:16:13.261Z,3.80
2022-11-05T02:18:53.424Z,3.70
2022-11-05T02:21:48.315Z,3.70
2022-11-05T02:24:52.857Z,3.70
2022-11-05T02:27:38.832Z,3.60
2022-11-05T02:30:28.123Z,3.60
2022-11-05T02:33:28.505Z,3.50
2022-11-05T02:36:24.454Z,3.50
2022-11-05T02:39:03.810Z,3.50
2022-11-05T02:41:41.084Z,3.50
2022-11-05T02:44:18.577Z,3.50
2022-11-05T02:46:57.028Z,3.40
2022-11-05T02:49:35.464Z,3.40
2022-11-05T02:52:07.666Z,3.40
2022-11-05T02:54:39.567Z,3.30
2022-11-05T02:57:08.096Z,3.30
2022-11-05T02:59:36.186Z,3.30
2022-11-05T03:02:07.620Z,3.30
2022-11-05T03:04:35.837Z,3.40
2022-11-05T03:07:20.582Z,3.40
2022-11-05T03:10:25.394Z,3.30
2022-11-05T03:13:03.450Z,3.30
2022-11-05T03:15:45.520Z,3.30
2022-11-05T03:18:19.909Z,3.20
2022-11-05T03:20:52.602Z,3.20
2022-11-05T03:23:29.074Z,3.10
2022-11-05T03:26:04.804Z,3.10
2022-11-05T03:28:38.167Z,3.10
2022-11-05T03:31:08.781Z,3.00
2022-11-05T03:33:40.254Z,3.00
2022-11-05T03:36:16.164Z,3.00
2022-11-05T03:38:47.908Z,3.00
2022-11-05T03:41:18.731Z,2.90
2022-11-05T03:43:50.439Z,3.00
2022-11-05T03:46:21.644Z,3.00
2022-11-05T03:48:55.416Z,3.00
2022-11-05T03:51:31.686Z,2.90
2022-11-05T03:54:02.117Z,2.90
2022-11-05T03:56:35.547Z,2.90
2022-11-05T03:59:05.456Z,2.90
2022-11-05T04:01:34.123Z,2.90
2022-11-05T04:04:03.904Z,2.90
2022-11-05T04:06:57.884Z,2.80
2022-11-05T04:09:43.283Z,2.80
2022-11-05T04:12:29.773Z,2.80
2022-11-05T04:14:58.023Z,2.90
2022-11-05T04:17:25.200Z,3.10
2022-11-05T04:20:14.400Z,3.40
2022-11-05T04:22:59.917Z,3.80
2022-11-05T04:25:28.067Z,4.10
2022-11-05T04:28:00.282Z,4.20
2022-11-05T04:30:27.623Z,4.30
2022-11-05T04:33:00.608Z,4.30
2022-11-05T04:35:31.556Z,4.40
2022-11-05T04:38:00.104Z,4.50
2022-11-05T04:40:28.795Z,4.50
2022-11-05T04:42:57.536Z,4.50
2022-11-05T04:45:26.685Z,4.50
2022-11-05T04:47:54.863Z,4.50
2022-11-05T04:50:23.559Z,4.50
2022-11-05T04:52:53.028Z,4.50
2022-11-05T04:55:21.601Z,4.50
2022-11-05T04:57:50.800Z,4.40
2022-11-05T05:00:19.600Z,4.40
2022-11-05T05:02:47.992Z,4.30
2022-11-05T05:05:16.763Z,4.30
2022-11-05T05:07:44.787Z,4.20
2022-11-05T05:10:14.646Z,4.20
2022-11-05T05:12:43.042Z,4.10
2022-11-05T05:15:11.092Z,4.10
2022-11-05T05:17:39.178Z,4.20
2022-11-05T05:20:25.399Z,4.20
2022-11-05T05:22:54.370Z,4.30
2022-11-05T05:25:24.447Z,4.30
2022-11-05T05:27:52.579Z,4.30
2022-11-05T05:30:20.609Z,4.30
2022-11-05T05:32:48.773Z,4.20
2022-11-05T05:35:17.388Z,4.10
2022-11-05T05:37:45.562Z,4.10
2022-11-05T05:40:13.717Z,4.10
2022-11-05T05:42:43.720Z,4.00
2022-11-05T05:45:12.848Z,4.00
2022-11-05T05:47:41.129Z,3.90
2022-11-05T05:50:09.554Z,3.90
2022-11-05T05:52:37.643Z,3.80
2022-11-05T05:55:06.445Z,3.80
2022-11-05T05:57:35.422Z,3.70
2022-11-05T06:00:06.841Z,3.70
2022-11-05T06:02:35.035Z,3.70
2022-11-05T06:05:03.205Z,4.10
2022-11-05T06:07:36.845Z,4.30
2022-11-05T06:10:06.313Z,4.50
2022-11-05T06:12:34.616Z,4.60
2022-11-05T06:15:04.503Z,4.60
2022-11-05T06:17:33.815Z,4.80
2022-11-05T06:20:01.966Z,4.90
2022-11-05T06:22:30.678Z,4.90
2022-11-05T06:24:58.799Z,5.00
2022-11-05T06:27:26.914Z,5.10
2022-11-05T06:29:54.964Z,5.20
2022-11-05T06:32:24.713Z,5.40
2022-11-05T06:34:52.853Z,5.50
2022-11-05T06:37:20.940Z,5.60
2022-11-05T06:39:49.170Z,5.60
2022-11-05T06:42:18.724Z,5.60
2022-11-05T06:44:47.777Z,5.60
2022-11-05T06:47:15.895Z,5.70
2022-11-05T06:49:45.491Z,5.80
2022-11-05T06:52:14.683Z,5.90
2022-11-05T06:54:43.895Z,5.90
2022-11-05T06:57:12.954Z,6.00
2022-11-05T06:59:41.333Z,6.10
2022-11-05T07:02:13.479Z,6.10
2022-11-05T07:04:41.623Z,6.20
2022-11-05T07:07:11.169Z,6.20
2022-11-05T07:09:42.932Z,6.20
2022-11-05T07:12:11.095Z,6.30
2022-11-05T07:14:39.577Z,6.30
2022-11-05T07:17:07.737Z,6.30
2022-11-05T07:19:35.890Z,6.30
2022-11-05T07:22:03.982Z,6.30
2022-11-05T07:24:33.394Z,6.30
2022-11-05T07:27:01.443Z,6.30
2022-11-05T07:29:29.675Z,6.30
2022-11-05T07:31:57.699Z,6.30
2022-11-05T07:34:25.893Z,6.30
2022-11-05T07:36:53.947Z,6.30
2022-11-05T07:39:22.455Z,6.30
2022-11-05T07:41:54.928Z,6.40
2022-11-05T07:44:23.145Z,6.40
2022-11-05T07:46:51.307Z,6.40
2022-11-05T07:49:19.910Z,6.40
2022-11-05T07:51:47.992Z,6.50
2022-11-05T07:54:16.072Z,6.50
2022-11-05T07:56:44.333Z,6.60
2022-11-05T07:59:13.751Z,6.60
2022-11-05T08:01:42.095Z,6.60
2022-11-05T08:04:10.461Z,6.60
2022-11-05T08:06:38.549Z,6.60
2022-11-05T08:09:06.653Z,6.70
2022-11-05T08:11:35.928Z,6.80
2022-11-05T08:14:04.129Z,6.80
2022-11-05T08:16:33.648Z,6.90
2022-11-05T08:19:01.718Z,7.00
2022-11-05T08:21:29.849Z,7.20
2022-11-05T08:23:58.045Z,7.50
2022-11-05T08:26:26.262Z,7.70
2022-11-05T08:28:54.440Z,7.90
2022-11-05T08:31:22.626Z,8.00
2022-11-05T08:33:52.053Z,8.20
2022-11-05T08:36:20.069Z,8.20
2022-11-05T08:38:48.175Z,8.30
2022-11-05T08:41:16.299Z,8.50
2022-11-05T08:43:44.476Z,8.40
2022-11-05T08:46:12.540Z,8.50
2022-11-05T08:48:40.705Z,8.60
2022-11-05T08:51:10.291Z,8.60
2022-11-05T08:53:38.388Z,8.70
2022-11-05T08:56:07.157Z,8.80
2022-11-05T08:58:35.351Z,9.00
2022-11-05T09:01:05.758Z,9.10
2022-11-05T09:03:34.195Z,9.20
2022-11-05T09:06:02.437Z,9.00
2022-11-05T09:08:32.021Z,8.80
2022-11-05T09:11:00.165Z,8.80
2022-11-05T09:13:28.336Z,8.90
2022-11-05T09:15:58.664Z,9.10
2022-11-05T09:18:27.177Z,9.30
2022-11-05T09:20:55.366Z,9.50
2022-11-05T09:23:23.560Z,9.80
2022-11-05T09:25:53.127Z,10.20
2022-11-05T09:28:23.877Z,10.30
2022-11-05T09:30:53.415Z,10.40
2022-11-05T09:33:24.368Z,10.80
2022-11-05T09:35:53.636Z,11.20
2022-11-05T09:38:21.938Z,11.00
2022-11-05T09:40:58.335Z,11.30
2022-11-05T09:43:31.983Z,11.80
2022-11-05T09:46:05.853Z,11.40
2022-11-05T09:48:35.176Z,11.50
2022-11-05T09:51:06.482Z,11.80
2022-11-05T09:53:39.604Z,12.00
2022-11-05T09:56:19.918Z,12.00
2022-11-05T09:58:51.267Z,12.00
2022-11-05T10:01:24.475Z,12.10
2022-11-05T10:03:56.085Z,12.20
2022-11-05T10:06:27.517Z,12.00
2022-11-05T10:09:02.367Z,12.10
2022-11-05T10:11:38.472Z,12.10
2022-11-05T10:14:13.945Z,12.30
2022-11-05T10:16:46.996Z,12.10
2022-11-05T10:19:22.068Z,12.20
2022-11-05T10:22:06.038Z,12.20
2022-11-05T10:24:35.214Z,12.50
2022-11-05T10:27:05.804Z,12.50
2022-11-05T10:29:36.213Z,12.50
2022-11-05T10:32:07.582Z,12.60
2022-11-05T10:34:39.188Z,12.70
2022-11-05T10:37:07.653Z,12.80
2022-11-05T10:39:39.018Z,13.00
2022-11-05T10:42:37.095Z,13.00
2022-11-05T10:45:21.839Z,12.50
2022-11-05T10:47:59.421Z,12.10
2022-11-05T10:50:30.075Z,11.90
2022-11-05T10:53:01.750Z,11.70
2022-11-05T10:55:32.082Z,11.50
2022-11-05T10:58:19.437Z,11.50
2022-11-05T11:01:03.671Z,11.50
2022-11-05T11:03:36.867Z,11.50
2022-11-05T11:06:07.799Z,11.50
2022-11-05T11:08:37.830Z,11.50
2022-11-05T11:11:10.920Z,11.60
2022-11-05T11:13:53.179Z,11.70
2022-11-05T11:16:23.671Z,11.70
2022-11-05T11:18:55.149Z,11.70
2022-11-05T11:21:24.404Z,11.60
2022-11-05T11:23:56.954Z,11.60
2022-11-05T11:26:28.011Z,11.60
2022-11-05T11:29:01.694Z,11.60
2022-11-05T11:31:31.820Z,11.60
2022-11-05T11:34:04.698Z,11.50
2022-11-05T11:36:39.404Z,11.60
2022-11-05T11:39:08.858Z,11.70
2022-11-05T11:41:42.004Z,11.80
2022-11-05T11:44:15.925Z,11.90
2022-11-05T11:46:49.562Z,12.10
2022-11-05T11:49:33.254Z,12.30
2022-11-05T11:52:04.548Z,12.40
2022-11-05T11:54:35.633Z,12.40
2022-11-05T11:57:04.207Z,12.30
2022-11-05T12:00:06.510Z,12.20
2022-11-05T12:02:51.641Z,12.20
2022-11-05T12:05:30.854Z,12.00
2022-11-05T12:08:06.733Z,12.10
2022-11-05T12:10:45.588Z,12.20
2022-11-05T12:13:45.432Z,12.30
2022-11-05T12:16:50.658Z,12.30
2022-11-05T12:19:32.745Z,12.30
2022-11-05T12:22:11.179Z,12.30
2022-11-05T12:24:58.884Z,12.40
2022-11-05T12:27:41.503Z,12.80
2022-11-05T12:30:14.859Z,13.50
2022-11-05T12:33:04.023Z,13.90
2022-11-05T12:35:49.916Z,14.20
2022-11-05T12:38:34.353Z,14.00
2022-11-05T12:41:13.788Z,13.50
2022-11-05T12:43:52.076Z,13.10
2022-11-05T12:46:29.471Z,12.70
2022-11-05T12:49:48.496Z,12.50
2022-11-05T12:52:30.663Z,12.90
2022-11-05T12:55:06.534Z,14.00
2022-11-05T12:57:39.978Z,14.90
2022-11-05T13:00:15.527Z,15.40
2022-11-05T13:02:51.285Z,15.40
2022-11-05T13:05:26.963Z,14.70
2022-11-05T13:07:59.196Z,14.20
2022-11-05T13:10:32.613Z,13.60
2022-11-05T13:13:07.554Z,13.20
2022-11-05T13:15:40.035Z,13.00
2022-11-05T13:18:14.653Z,12.90
2022-11-05T13:20:50.345Z,12.80
2022-11-05T13:23:26.202Z,12.70
2022-11-05T13:26:00.454Z,12.70
2022-11-05T13:28:39.859Z,12.60
2022-11-05T13:31:13.683Z,12.50
2022-11-05T13:33:44.944Z,12.60
2022-11-05T13:36:36.111Z,12.50
2022-11-05T13:39:19.130Z,12.50
2022-11-05T13:41:58.492Z,12.50
2022-11-05T13:44:59.477Z,12.50
2022-11-05T13:48:04.621Z,12.60
2022-11-05T13:51:01.402Z,12.60
2022-11-05T13:54:02.667Z,12.70
2022-11-05T13:56:53.652Z,12.90
2022-11-05T13:59:47.374Z,12.80
2022-11-05T14:02:19.662Z,12.80
2022-11-05T14:04:50.340Z,12.80
2022-11-05T14:07:22.191Z,12.50
2022-11-05T14:09:57.300Z,12.40
2022-11-05T14:12:30.474Z,12.30
2022-11-05T14:15:04.346Z,12.10
2022-11-05T14:17:36.490Z,12.00
2022-11-05T14:20:24.592Z,11.90
2022-11-05T14:22:54.197Z,11.80
2022-11-05T14:25:57.708Z,11.70
2022-11-05T14:28:42.020Z,11.70
2022-11-05T14:31:47.317Z,11.60
2022-11-05T14:34:23.833Z,11.60
2022-11-05T14:37:22.291Z,11.50
2022-11-05T14:39:50.875Z,11.50
2022-11-05T14:42:24.388Z,11.50
2022-11-05T14:45:09.064Z,11.50
2022-11-05T14:47:39.917Z,11.40
2022-11-05T14:50:17.531Z,11.40
2022-11-05T14:52:53.872Z,11.40
2022-11-05T14:55:29.567Z,11.30
2022-11-05T14:58:33.968Z,11.30
2022-11-05T15:01:03.164Z,11.30
2022-11-05T15:03:42.540Z,11.30
2022-11-05T15:06:28.814Z,11.30
2022-11-05T15:09:13.773Z,11.30
2022-11-05T15:11:47.256Z,11.30
2022-11-05T15:14:23.944Z,11.20
2022-11-05T15:16:55.055Z,11.10
2022-11-05T15:19:33.088Z,11.10
2022-11-05T15:22:04.550Z,11.00
2022-11-05T15:24:33.411Z,11.00
2022-11-05T15:27:08.708Z,10.90
2022-11-05T15:29:38.719Z,10.90
2022-11-05T15:32:06.750Z,10.90
2022-11-05T15:34:36.464Z,10.80
2022-11-05T15:37:22.063Z,10.80
2022-11-05T15:39:51.971Z,10.70
2022-11-05T15:42:22.965Z,10.70
2022-11-05T15:44:54.369Z,10.60
2022-11-05T15:47:24.520Z,10.60
2022-11-05T15:49:54.972Z,10.50
2022-11-05T15:52:24.511Z,10.50
2022-11-05T15:55:10.732Z,10.50
2022-11-05T15:57:40.498Z,10.40
2022-11-05T16:00:18.115Z,10.30
2022-11-05T16:02:53.677Z,10.30
2022-11-05T16:05:22.393Z,10.30
2022-11-05T16:07:50.646Z,10.20
2022-11-05T16:10:31.434Z,10.20
2022-11-05T16:13:21.649Z,10.20
2022-11-05T16:15:56.670Z,10.10
2022-11-05T16:18:26.947Z,10.10
2022-11-05T16:21:06.251Z,10.10
2022-11-05T16:23:46.709Z,10.10
2022-11-05T16:27:02.416Z,10.00
2022-11-05T16:29:28.779Z,10.00
2022-11-05T16:31:59.724Z,10.00
2022-11-05T16:34:32.428Z,10.00
2022-11-05T16:37:01.113Z,10.00
2022-11-05T16:39:29.563Z,10.00
2022-11-05T16:41:57.692Z,10.00
2022-11-05T16:44:25.938Z,9.90
2022-11-05T16:46:54.172Z,9.90
2022-11-05T16:49:23.619Z,9.90
2022-11-05T16:51:51.597Z,9.90
2022-11-05T16:54:19.758Z,9.90
2022-11-05T16:56:47.888Z,9.90
2022-11-05T16:59:16.075Z,9.80
2022-11-05T17:01:44.516Z,9.80
2022-11-05T17:04:14.304Z,9.80
2022-11-05T17:06:46.653Z,9.80
2022-11-05T17:09:14.944Z,9.80
2022-11-05T17:11:46.394Z,9.80
2022-11-05T17:14:15.223Z,9.80
2022-11-05T17:16:50.709Z,9.80
2022-11-05T17:19:19.153Z,9.90
2022-11-05T17:21:50.160Z,9.80
2022-11-05T17:24:18.545Z,9.80
2022-11-05T17:26:46.829Z,9.80
2022-11-05T17:29:16.336Z,9.80
2022-11-05T17:31:44.609Z,9.70
2022-11-05T17:34:12.996Z,9.70
2022-11-05T17:36:41.517Z,9.70
2022-11-05T17:39:12.792Z,9.70
2022-11-05T17:41:40.987Z,9.70
2022-11-05T17:44:11.615Z,9.70
2022-11-05T17:46:40.454Z,9.70
2022-11-05T17:49:09.739Z,9.70
2022-11-05T17:51:38.690Z,9.60
2022-11-05T17:54:07.591Z,9.60
2022-11-05T17:56:44.438Z,9.60
2022-11-05T17:59:13.060Z,9.50
2022-11-05T18:01:43.560Z,9.50
2022-11-05T18:04:12.208Z,9.50
2022-11-05T18:06:41.740Z,9.50
2022-11-05T18:09:11.960Z,9.50
2022-11-05T18:11:43.578Z,9.60
2022-11-05T18:14:12.108Z,9.50
2022-11-05T18:16:40.277Z,9.50
2022-11-05T18:19:08.466Z,9.50
2022-11-05T18:21:36.878Z,9.50
2022-11-05T18:24:06.089Z,9.50
2022-11-05T18:26:34.779Z,9.50
2022-11-05T18:29:05.733Z,9.50
2022-11-05T18:31:33.946Z,9.40
2022-11-05T18:34:02.271Z,9.40
2022-11-05T18:36:32.637Z,9.40
2022-11-05T18:39:02.562Z,9.50
2022-11-05T18:41:31.195Z,9.50
2022-11-05T18:44:00.770Z,9.40
2022-11-05T18:46:56.431Z,9.40
2022-11-05T18:49:19.279Z,9.40
2022-11-05T18:51:47.386Z,9.40
2022-11-05T18:54:15.645Z,9.40
2022-11-05T18:56:46.091Z,9.40
2022-11-05T18:59:35.575Z,9.40
2022-11-05T19:02:05.192Z,9.40
2022-11-05T19:04:33.321Z,9.40
2022-11-05T19:07:04.718Z,9.40
2022-11-05T19:09:34.051Z,9.40
2022-11-05T19:12:02.478Z,9.40
2022-11-05T19:14:31.287Z,9.40
2022-11-05T19:17:00.213Z,9.30
2022-11-05T19:19:29.804Z,9.30
2022-11-05T19:21:58.097Z,9.30
2022-11-05T19:24:26.256Z,9.30
2022-11-05T19:26:54.419Z,9.30
2022-11-05T19:29:22.587Z,9.30
2022-11-05T19:31:50.713Z,9.20
2022-11-05T19:34:19.102Z,9.20
2022-11-05T19:36:48.827Z,9.20
2022-11-05T19:39:16.929Z,9.20
2022-11-05T19:41:45.058Z,9.20
2022-11-05T19:44:13.423Z,9.20
2022-11-05T19:46:41.693Z,9.20
2022-11-05T19:49:09.786Z,9.20
2022-11-05T19:51:38.005Z,9.20
2022-11-05T19:54:08.556Z,9.20
2022-11-05T19:56:38.562Z,9.20
2022-11-05T19:59:07.579Z,9.10
2022-11-05T20:01:36.680Z,9.20
2022-11-05T20:04:05.788Z,9.20
2022-11-05T20:06:38.048Z,9.10
2022-11-05T20:09:24.733Z,9.10
2022-11-05T20:11:54.489Z,9.10
2022-11-05T20:14:23.501Z,9.10
2022-11-05T20:16:51.682Z,9.10
2022-11-05T20:19:22.535Z,9.10
2022-11-05T20:21:50.953Z,9.10
2022-11-05T20:24:24.935Z,9.10
2022-11-05T20:26:53.890Z,9.20
2022-11-05T20:29:22.775Z,9.10
2022-11-05T20:31:51.354Z,9.10
2022-11-05T20:34:19.459Z,9.10
2022-11-05T20:36:47.581Z,9.10
2022-11-05T20:39:15.667Z,9.10
2022-11-05T20:41:45.142Z,9.10
2022-11-05T20:44:13.263Z,9.10
2022-11-05T20:46:41.384Z,9.10
2022-11-05T20:49:09.626Z,9.10
2022-11-05T20:51:37.819Z,9.00
2022-11-05T20:54:06.364Z,9.00
2022-11-05T20:56:35.801Z,9.00
2022-11-05T20:59:05.787Z,9.00
2022-11-05T21:01:35.447Z,8.90
2022-11-05T21:04:05.033Z,8.90
2022-11-05T21:06:33.829Z,8.90
2022-11-05T21:09:02.503Z,8.90
2022-11-05T21:11:50.824Z,8.90
2022-11-05T21:14:20.196Z,8.90
2022-11-05T21:16:48.301Z,8.90
2022-11-05T21:19:16.334Z,8.90
2022-11-05T21:21:44.588Z,9.00
2022-11-05T21:24:15.744Z,9.00
2022-11-05T21:26:44.073Z,9.00
2022-11-05T21:29:15.550Z,9.00
2022-11-05T21:31:46.228Z,9.10
2022-11-05T21:34:17.322Z,9.10
2022-11-05T21:36:45.983Z,9.00
2022-11-05T21:39:14.699Z,9.10
2022-11-05T21:41:45.654Z,9.10
2022-11-05T21:44:19.666Z,9.10
2022-11-05T21:46:50.811Z,9.10
2022-11-05T21:49:19.139Z,9.10
2022-11-05T21:52:04.808Z,9.10
2022-11-05T21:54:51.123Z,9.10
2022-11-05T21:57:36.900Z,9.10
2022-11-05T22:00:07.564Z,9.10
2022-11-05T22:02:37.963Z,9.10
2022-11-05T22:05:07.935Z,9.10
2022-11-05T22:07:40.254Z,9.10
2022-11-05T22:10:15.802Z,9.10
2022-11-05T22:12:45.194Z,9.10
2022-11-05T22:15:13.692Z,9.00
2022-11-05T22:17:46.982Z,9.10
2022-11-05T22:20:16.490Z,9.10
2022-11-05T22:22:45.016Z,9.10
2022-11-05T22:25:14.358Z,9.10
2022-11-05T22:27:43.682Z,9.10
2022-11-05T22:30:13.408Z,9.10
2022-11-05T22:32:42.994Z,9.10
2022-11-05T22:35:11.596Z,9.10
2022-11-05T22:37:39.868Z,9.10
2022-11-05T22:40:08.827Z,9.00
2022-11-05T22:42:37.028Z,9.00
2022-11-05T22:45:05.758Z,9.00
2022-11-05T22:47:33.752Z,9.00
2022-11-05T22:50:03.599Z,9.00
2022-11-05T22:52:32.706Z,9.00
2022-11-05T22:55:02.672Z,9.00
2022-11-05T22:57:30.890Z,9.00
2022-11-05T22:59:59.017Z,9.00
2022-11-05T23:02:27.276Z,9.10
2022-11-05T23:04:55.570Z,9.10
2022-11-05T23:07:57.548Z,9.00
2022-11-05T23:10:43.044Z,9.00
2022-11-05T23:13:11.236Z,9.10
2022-11-05T23:16:08.311Z,9.10
2022-11-05T23:18:53.951Z,9.10
2022-11-05T23:21:39.579Z,9.10
2022-11-05T23:24:09.605Z,9.10
2022-11-05T23:26:53.938Z,9.10
2022-11-05T23:29:24.295Z,9.10
2022-11-05T23:32:10.620Z,9.10
2022-11-05T23:34:39.274Z,9.10
2022-11-05T23:37:25.287Z,9.10
2022-11-05T23:39:55.058Z,9.10
2022-11-05T23:42:40.861Z,9.10
2022-11-05T23:45:27.378Z,9.10
2022-11-05T23:48:13.216Z,9.10
2022-11-05T23:50:42.068Z,9.10
2022-11-05T23:53:11.395Z,9.10
2022-11-05T23:55:40.944Z,9.10
2022-11-05T23:58:09.877Z,9.10
